Time;durP1;ratioP1;P1;durP2;ratioP2;P2;SDS_P1;SDS_P2;PMS_P1;PMS_P2;Temp;Humidity;BMP_temperature;BMP_pressure;BME280_temperature;BME280_humidity;BME280_pressure;Samples;Min_cycle;Max_cycle;Signal;HPM_P1;HPM_P2
2022/04/08 00:01:25;;;;;;;;;;;5.90;95.10;;;;;;6144865;23;20220;-85
2022/04/08 00:03:53;;;;;;;;;;;5.90;95.90;;;;;;6137208;23;20157;-84
2022/04/08 00:06:22;;;;;;;;;;;5.90;95.70;;;;;;6110013;23;19921;-88
2022/04/08 00:08:49;;;;;;;;;;;5.90;95.40;;;;;;6132174;23;19932;-82
2022/04/08 00:11:17;;;;;;;;;;;5.90;95.50;;;;;;6129095;23;19921;-83
2022/04/08 00:13:45;;;;;;;;;;;5.90;95.70;;;;;;6132052;23;20388;-85
2022/04/08 00:16:12;;;;;;;;;;;5.90;95.90;;;;;;6132260;23;19928;-87
2022/04/08 00:18:40;;;;;;;;;;;5.90;95.60;;;;;;6107452;23;19925;-85
2022/04/08 00:21:11;;;;;;;;;;;5.90;95.70;;;;;;6131158;23;20281;-89
2022/04/08 00:23:38;;;;;;;;;;;5.80;96.00;;;;;;6133346;23;19921;-86
2022/04/08 00:26:06;;;;;;;;;;;5.80;96.00;;;;;;6106412;23;19921;-84
2022/04/08 00:28:34;;;;;;;;;;;5.80;95.90;;;;;;6105819;23;19921;-82
2022/04/08 00:31:02;;;;;;;;;;;5.80;96.30;;;;;;6130546;23;20267;-84
2022/04/08 00:33:33;;;;;;;;;;;5.80;96.10;;;;;;6082384;23;19920;-85
2022/04/08 00:36:00;;;;;;;;;;;5.80;96.30;;;;;;6133178;23;19936;-84
2022/04/08 00:38:28;;;;;;;;;;;5.70;96.60;;;;;;6057436;23;19921;-84
2022/04/08 00:40:56;;;;;;;;;;;5.90;96.50;;;;;;6135276;23;19921;-87
2022/04/08 00:43:33;;;;;;;;;;;5.70;97.00;;;;;;6116621;23;19925;-82
2022/04/08 00:46:02;;;;;;;;;;;5.70;96.80;;;;;;6106344;23;19921;-83
2022/04/08 00:48:31;;;;;;;;;;;5.70;96.90;;;;;;6138071;23;19929;-86
2022/04/08 00:51:00;;;;;;;;;;;5.70;97.10;;;;;;6133358;23;19925;-85
2022/04/08 00:53:28;;;;;;;;;;;5.60;97.20;;;;;;6106666;23;19921;-86
2022/04/08 00:55:56;;;;;;;;;;;5.60;97.40;;;;;;6135790;23;19921;-83
2022/04/08 00:58:25;;;;;;;;;;;5.60;97.60;;;;;;6135137;23;19921;-84
2022/04/08 01:00:55;;;;;;;;;;;5.50;97.90;;;;;;6135846;23;19921;-86
2022/04/08 01:03:23;;;;;;;;;;;5.50;98.10;;;;;;6106941;23;19923;-83
2022/04/08 01:05:51;;;;;;;;;;;5.50;98.50;;;;;;6111798;23;19924;-82
2022/04/08 01:08:21;;;;;;;;;;;5.50;98.50;;;;;;6109966;23;19921;-81
2022/04/08 01:10:49;;;;;;;;;;;5.50;98.20;;;;;;6112225;23;19924;-82
2022/04/08 01:13:17;;;;;;;;;;;5.40;98.50;;;;;;6112410;23;19931;-85
2022/04/08 01:15:46;;;;;;;;;;;5.40;98.70;;;;;;6135310;23;19931;-83
2022/04/08 01:18:13;;;;;;;;;;;5.40;99.40;;;;;;6137152;23;19921;-83
2022/04/08 01:20:42;;;;;;;;;;;5.30;98.70;;;;;;6140647;23;20401;-84
2022/04/08 01:23:11;;;;;;;;;;;5.40;99.70;;;;;;6130899;23;19921;-83
2022/04/08 01:25:39;;;;;;;;;;;5.40;99.50;;;;;;6133051;23;19928;-88
2022/04/08 01:28:06;;;;;;;;;;;5.40;99.80;;;;;;6131436;23;19932;-84
2022/04/08 01:30:33;;;;;;;;;;;5.40;99.30;;;;;;6132815;23;19969;-86
2022/04/08 01:33:01;;;;;;;;;;;5.30;99.50;;;;;;6077235;23;20375;-83
2022/04/08 01:35:28;;;;;;;;;;;5.30;99.90;;;;;;6133349;23;19925;-84
2022/04/08 01:37:56;;;;;;;;;;;5.30;99.90;;;;;;6105519;23;19936;-85
2022/04/08 01:40:23;;;;;;;;;;;5.30;99.90;;;;;;6125436;23;19925;-83
2022/04/08 01:42:51;;;;;;;;;;;5.30;99.90;;;;;;6131031;23;19933;-83
2022/04/08 01:45:18;;;;;;;;;;;5.40;99.90;;;;;;6128879;23;19921;-82
2022/04/08 01:47:46;;;;;;;;;;;5.20;99.90;;;;;;6132993;23;19925;-84
2022/04/08 01:50:18;;;;;;;;;;;5.20;99.90;;;;;;6106475;23;19921;-86
2022/04/08 01:52:46;;;;;;;;;;;5.20;99.90;;;;;;6136672;23;19945;-82
2022/04/08 01:55:14;;;;;;;;;;;5.20;99.90;;;;;;6131574;23;19920;-86
2022/04/08 01:57:42;;;;;;;;;;;5.20;99.90;;;;;;6107189;23;19924;-86
2022/04/08 02:00:10;;;;;;;;;;;5.20;99.90;;;;;;6132594;23;19931;-86
2022/04/08 02:02:40;;;;;;;;;;;5.10;99.90;;;;;;6138640;23;19935;-86
2022/04/08 02:05:08;;;;;;;;;;;5.10;99.90;;;;;;6117390;23;19925;-85
2022/04/08 02:07:39;;;;;;;;;;;5.10;99.90;;;;;;6139651;23;19935;-87
2022/04/08 02:10:10;;;;;;;;;;;5.20;99.90;;;;;;6115070;23;19921;-87
2022/04/08 02:12:38;;;;;;;;;;;5.10;99.90;;;;;;6140249;23;19921;-82
2022/04/08 02:15:06;;;;;;;;;;;5.10;99.90;;;;;;6140935;23;19927;-81
2022/04/08 02:17:34;;;;;;;;;;;5.10;99.90;;;;;;6111773;23;19925;-82
2022/04/08 02:20:08;;;;;;;;;;;5.10;99.90;;;;;;6111711;23;19925;-83
2022/04/08 02:22:38;;;;;;;;;;;5.20;99.90;;;;;;6134641;23;19931;-83
2022/04/08 02:25:06;;;;;;;;;;;5.20;99.90;;;;;;6133580;23;19921;-82
2022/04/08 02:27:33;;;;;;;;;;;5.20;99.90;;;;;;6107356;23;19921;-81
2022/04/08 02:30:02;;;;;;;;;;;5.20;99.90;;;;;;6112165;23;19928;-82
2022/04/08 02:32:30;;;;;;;;;;;5.20;99.90;;;;;;6082524;23;19921;-82
2022/04/08 02:34:58;;;;;;;;;;;5.20;99.90;;;;;;6136743;23;19978;-83
2022/04/08 02:37:26;;;;;;;;;;;5.20;99.90;;;;;;6131779;23;20249;-83
2022/04/08 02:39:54;;;;;;;;;;;4.10;99.90;;;;;;6138197;23;19927;-84
2022/04/08 02:42:22;;;;;;;;;;;5.10;99.90;;;;;;6108432;23;19924;-83
2022/04/08 02:44:49;;;;;;;;;;;5.20;99.90;;;;;;6104856;23;20789;-84
2022/04/08 02:47:18;;;;;;;;;;;5.20;99.90;;;;;;6104920;23;20231;-85
2022/04/08 02:49:48;;;;;;;;;;;5.20;99.90;;;;;;6133729;23;20227;-83
2022/04/08 02:52:15;;;;;;;;;;;5.20;99.90;;;;;;6105139;23;19927;-84
2022/04/08 02:54:43;;;;;;;;;;;5.20;99.90;;;;;;6128765;23;19921;-85
2022/04/08 02:57:10;;;;;;;;;;;5.20;99.90;;;;;;6128044;23;19921;-84
2022/04/08 02:59:37;;;;;;;;;;;5.10;99.90;;;;;;6132466;23;19920;-86
2022/04/08 03:02:05;;;;;;;;;;;5.10;99.90;;;;;;6105120;23;19931;-82
2022/04/08 03:04:32;;;;;;;;;;;5.10;99.90;;;;;;6134755;23;19921;-84
2022/04/08 03:07:01;;;;;;;;;;;5.10;99.90;;;;;;6105840;23;19925;-82
2022/04/08 03:09:29;;;;;;;;;;;5.10;99.90;;;;;;6129097;23;19932;-86
2022/04/08 03:11:56;;;;;;;;;;;5.10;99.90;;;;;;6131246;23;19920;-90
2022/04/08 03:14:23;;;;;;;;;;;5.00;99.90;;;;;;6106003;23;19928;-88
2022/04/08 03:16:51;;;;;;;;;;;5.00;99.90;;;;;;6128902;23;20445;-88
2022/04/08 03:19:18;;;;;;;;;;;5.00;99.90;;;;;;6122793;23;20087;-82
2022/04/08 03:21:46;;;;;;;;;;;5.00;99.90;;;;;;6103142;23;19925;-85
2022/04/08 03:24:15;;;;;;;;;;;5.00;99.90;;;;;;6103724;23;19931;-82
2022/04/08 03:26:43;;;;;;;;;;;5.00;99.90;;;;;;6130053;23;19925;-83
2022/04/08 03:29:11;;;;;;;;;;;5.00;99.90;;;;;;6107226;23;19920;-84
2022/04/08 03:31:39;;;;;;;;;;;5.00;99.90;;;;;;6104362;23;19931;-84
2022/04/08 03:34:06;;;;;;;;;;;5.00;99.90;;;;;;6132054;23;19929;-85
2022/04/08 03:36:35;;;;;;;;;;;5.00;99.90;;;;;;6128766;23;19932;-83
2022/04/08 03:39:02;;;;;;;;;;;5.00;99.90;;;;;;6132305;23;19928;-84
2022/04/08 03:41:30;;;;;;;;;;;4.90;99.90;;;;;;6128482;23;19924;-85
2022/04/08 03:43:58;;;;;;;;;;;4.90;99.90;;;;;;6137947;23;19943;-83
2022/04/08 03:46:26;;;;;;;;;;;5.00;99.90;;;;;;6129424;23;19927;-85
2022/04/08 03:48:54;;;;;;;;;;;5.00;99.90;;;;;;6124258;23;20326;-83
2022/04/08 03:51:21;;;;;;;;;;;5.00;99.90;;;;;;6128662;23;19921;-83
2022/04/08 03:53:49;;;;;;;;;;;5.00;99.90;;;;;;6124627;23;19921;-82
2022/04/08 03:56:16;;;;;;;;;;;5.00;99.90;;;;;;6127338;23;19932;-82
2022/04/08 03:58:43;;;;;;;;;;;5.00;99.90;;;;;;6124583;23;19920;-87
2022/04/08 04:01:12;;;;;;;;;;;5.00;99.90;;;;;;6129933;23;19924;-86
2022/04/08 04:03:40;;;;;;;;;;;5.00;99.90;;;;;;6125317;23;19928;-82
2022/04/08 04:06:09;;;;;;;;;;;5.00;99.90;;;;;;6125301;23;19921;-84
2022/04/08 04:08:40;;;;;;;;;;;5.10;99.90;;;;;;6055810;23;19925;-82
2022/04/08 04:11:07;;;;;;;;;;;5.10;99.90;;;;;;6079024;23;19928;-82
2022/04/08 04:13:36;;;;;;;;;;;5.10;99.90;;;;;;6103772;23;19921;-84
2022/04/08 04:16:06;;;;;;;;;;;5.00;99.90;;;;;;6102966;23;19925;-82
2022/04/08 04:18:34;;;;;;;;;;;5.10;99.90;;;;;;6132840;23;19921;-82
2022/04/08 04:21:01;;;;;;;;;;;5.10;99.90;;;;;;6132210;23;19921;-85
2022/04/08 04:23:29;;;;;;;;;;;5.10;99.90;;;;;;6132082;23;19925;-89
2022/04/08 04:25:56;;;;;;;;;;;5.10;99.90;;;;;;6129249;23;19940;-82
2022/04/08 04:28:24;;;;;;;;;;;5.10;99.90;;;;;;6128536;23;19917;-83
2022/04/08 04:30:53;;;;;;;;;;;5.10;99.90;;;;;;6126986;23;20299;-84
2022/04/08 04:33:20;;;;;;;;;;;5.10;99.90;;;;;;6106110;23;19928;-85
2022/04/08 04:35:48;;;;;;;;;;;5.10;99.90;;;;;;6131705;23;19928;-84
2022/04/08 04:38:16;;;;;;;;;;;5.10;99.90;;;;;;6080744;23;19921;-82
2022/04/08 04:40:44;;;;;;;;;;;5.10;99.90;;;;;;6056117;23;19925;-84
2022/04/08 04:43:11;;;;;;;;;;;5.30;99.90;;;;;;6130379;23;19928;-84
2022/04/08 04:45:39;;;;;;;;;;;5.20;99.90;;;;;;6130809;23;20622;-83
2022/04/08 04:48:07;;;;;;;;;;;5.20;99.90;;;;;;6101972;23;19932;-86
2022/04/08 04:50:34;;;;;;;;;;;5.20;99.90;;;;;;6125526;23;19925;-86
2022/04/08 04:53:03;;;;;;;;;;;5.20;99.90;;;;;;6124943;23;20249;-81
2022/04/08 04:55:34;;;;;;;;;;;5.20;99.90;;;;;;6077510;23;19921;-83
2022/04/08 04:58:06;;;;;;;;;;;5.20;99.90;;;;;;6124255;23;19921;-82
2022/04/08 05:00:33;;;;;;;;;;;5.20;99.90;;;;;;6101029;23;19921;-83
2022/04/08 05:03:05;;;;;;;;;;;5.20;99.90;;;;;;6103413;23;19924;-82
2022/04/08 05:05:35;;;;;;;;;;;5.20;99.90;;;;;;6123027;23;19932;-81
2022/04/08 05:08:03;;;;;;;;;;;5.20;99.90;;;;;;6129280;23;19932;-82
2022/04/08 05:10:34;;;;;;;;;;;5.20;99.90;;;;;;6101345;23;19921;-82
2022/04/08 05:13:02;;;;;;;;;;;5.20;99.90;;;;;;6099236;23;20424;-82
2022/04/08 05:15:32;;;;;;;;;;;5.20;99.90;;;;;;6126414;23;19924;-81
2022/04/08 05:18:03;;;;;;;;;;;5.10;99.90;;;;;;6076186;23;19925;-83
2022/04/08 05:20:30;;;;;;;;;;;5.20;99.90;;;;;;6127621;23;20251;-83
2022/04/08 05:22:58;;;;;;;;;;;5.20;99.90;;;;;;6129556;23;19925;-82
2022/04/08 05:25:28;;;;;;;;;;;5.20;99.90;;;;;;6125643;23;20092;-82
2022/04/08 05:27:55;;;;;;;;;;;5.20;99.90;;;;;;6131412;23;19925;-82
2022/04/08 05:30:23;;;;;;;;;;;5.20;99.90;;;;;;6103892;23;19925;-83
2022/04/08 05:32:56;;;;;;;;;;;5.20;99.90;;;;;;6128171;23;19925;-84
2022/04/08 05:35:25;;;;;;;;;;;5.20;99.90;;;;;;6127618;23;19921;-84
2022/04/08 05:37:56;;;;;;;;;;;5.20;99.90;;;;;;6101584;23;19927;-82
2022/04/08 05:40:24;;;;;;;;;;;5.20;99.90;;;;;;6099450;23;19932;-82
2022/04/08 05:42:52;;;;;;;;;;;5.20;99.90;;;;;;6077205;23;19921;-84
2022/04/08 05:45:23;;;;;;;;;;;4.80;99.90;;;;;;6126139;23;20238;-82
2022/04/08 05:47:52;;;;;;;;;;;5.20;99.90;;;;;;6096979;23;19921;-82
2022/04/08 05:50:20;;;;;;;;;;;5.30;99.90;;;;;;6126509;23;19925;-82
2022/04/08 05:52:48;;;;;;;;;;;5.30;99.90;;;;;;6100875;23;19921;-83
2022/04/08 05:55:16;;;;;;;;;;;5.20;99.90;;;;;;6100048;23;19944;-82
2022/04/08 05:57:46;;;;;;;;;;;5.30;99.90;;;;;;6123055;23;20632;-83
2022/04/08 06:00:15;;;;;;;;;;;5.10;99.90;;;;;;6127311;23;19921;-82
2022/04/08 06:02:45;;;;;;;;;;;5.30;99.90;;;;;;6121115;23;19925;-82
2022/04/08 06:05:18;;;;;;;;;;;5.40;99.90;;;;;;6102332;23;19925;-82
2022/04/08 06:07:50;;;;;;;;;;;5.40;99.90;;;;;;6068892;23;19932;-82
2022/04/08 06:10:18;;;;;;;;;;;5.50;99.90;;;;;;6120666;23;19932;-82
2022/04/08 06:12:53;;;;;;;;;;;5.50;99.90;;;;;;6094545;23;19929;-82
2022/04/08 06:15:23;;;;;;;;;;;5.50;99.90;;;;;;6100008;23;20178;-83
2022/04/08 06:17:50;;;;;;;;;;;5.60;99.90;;;;;;6094508;23;19921;-82
2022/04/08 06:20:18;;;;;;;;;;;5.50;99.90;;;;;;6091846;23;19925;-82
2022/04/08 06:22:47;;;;;;;;;;;5.60;99.90;;;;;;6118119;23;20293;-82
2022/04/08 06:25:18;;;;;;;;;;;5.60;99.90;;;;;;6067937;23;20234;-82
2022/04/08 06:27:55;;;;;;;;;;;5.70;99.90;;;;;;6096660;23;19925;-83
2022/04/08 06:30:25;;;;;;;;;;;5.70;99.90;;;;;;6124608;23;19920;-82
2022/04/08 06:32:53;;;;;;;;;;;5.90;99.90;;;;;;6125945;23;19929;-83
2022/04/08 06:35:30;;;;;;;;;;;5.80;99.90;;;;;;6102310;23;19928;-81
2022/04/08 06:38:00;;;;;;;;;;;5.70;99.90;;;;;;6126283;23;19948;-81
2022/04/08 06:40:29;;;;;;;;;;;5.90;99.90;;;;;;6124643;23;19925;-83
2022/04/08 06:42:59;;;;;;;;;;;5.60;99.90;;;;;;6100847;23;19936;-83
2022/04/08 06:45:28;;;;;;;;;;;5.80;99.90;;;;;;6105959;23;19931;-83
2022/04/08 06:47:56;;;;;;;;;;;5.90;99.90;;;;;;6105961;23;19932;-85
2022/04/08 06:50:28;;;;;;;;;;;6.00;99.90;;;;;;6107221;23;19925;-84
2022/04/08 06:53:12;;;;;;;;;;;5.80;99.90;;;;;;6107239;23;19927;-82
2022/04/08 06:55:47;;;;;;;;;;;6.10;99.90;;;;;;6105751;23;20525;-84
2022/04/08 06:58:21;;;;;;;;;;;6.10;99.90;;;;;;6136691;23;20078;-83
2022/04/08 07:00:55;;;;;;;;;;;6.20;99.90;;;;;;6060210;23;19965;-84
2022/04/08 07:03:24;;;;;;;;;;;6.50;99.90;;;;;;6082873;23;19925;-84
2022/04/08 07:05:59;;;;;;;;;;;6.20;99.90;;;;;;6142085;23;19925;-83
2022/04/08 07:08:38;;;;;;;;;;;6.30;99.90;;;;;;6087341;23;19931;-83
2022/04/08 07:11:13;;;;;;;;;;;6.50;99.90;;;;;;6061961;23;19924;-85
2022/04/08 07:13:47;;;;;;;;;;;6.40;99.90;;;;;;6113040;23;19925;-83
2022/04/08 07:16:23;;;;;;;;;;;7.00;99.90;;;;;;6106194;23;20345;-84
2022/04/08 07:18:53;;;;;;;;;;;6.60;99.90;;;;;;6099764;23;19925;-84
2022/04/08 07:21:27;;;;;;;;;;;6.60;99.90;;;;;;6127225;23;19931;-84
2022/04/08 07:23:57;;;;;;;;;;;5.90;99.90;;;;;;6118281;23;20364;-85
2022/04/08 07:26:30;;;;;;;;;;;7.50;99.90;;;;;;6127872;23;19936;-85
2022/04/08 07:29:00;;;;;;;;;;;6.60;99.90;;;;;;6145132;23;19931;-82
2022/04/08 07:31:36;;;;;;;;;;;6.70;99.90;;;;;;6144186;23;19935;-81
2022/04/08 07:34:31;;;;;;;;;;;6.70;99.90;;;;;;6131740;23;19929;-80
2022/04/08 07:37:03;;;;;;;;;;;6.70;99.90;;;;;;6133385;23;19927;-81
2022/04/08 07:39:31;;;;;;;;;;;6.90;99.90;;;;;;6132930;23;19921;-82
2022/04/08 07:42:10;;;;;;;;;;;6.90;99.90;;;;;;6133767;23;20339;-81
2022/04/08 07:44:39;;;;;;;;;;;6.80;99.90;;;;;;6133692;23;20355;-84
2022/04/08 07:47:10;;;;;;;;;;;6.80;99.90;;;;;;6133072;23;19921;-82
2022/04/08 07:49:45;;;;;;;;;;;6.80;99.90;;;;;;6135242;23;19925;-82
2022/04/08 07:52:14;;;;;;;;;;;6.80;99.90;;;;;;6132117;23;20107;-81
2022/04/08 07:54:43;;;;;;;;;;;7.00;99.90;;;;;;6132274;23;19925;-82
2022/04/08 07:57:12;;;;;;;;;;;7.00;99.90;;;;;;6134013;23;19921;-83
2022/04/08 07:59:40;;;;;;;;;;;6.90;99.90;;;;;;6110011;23;19921;-81
2022/04/08 08:02:08;;;;;;;;;;;7.00;99.90;;;;;;6117528;23;19925;-84
2022/04/08 08:04:41;;;;;;;;;;;7.00;99.90;;;;;;6108857;23;19959;-82
2022/04/08 08:07:31;;;;;;;;;;;7.20;99.90;;;;;;6136857;23;19967;-84
2022/04/08 08:09:58;;;;;;;;;;;7.20;99.90;;;;;;6144391;23;20353;-81
2022/04/08 08:12:27;;;;;;;;;;;7.10;99.90;;;;;;6131880;23;19921;-80
2022/04/08 08:14:55;;;;;;;;;;;7.20;99.90;;;;;;6132623;23;19929;-81
2022/04/08 08:17:23;;;;;;;;;;;7.20;99.90;;;;;;6134837;23;19931;-80
2022/04/08 08:19:52;;;;;;;;;;;7.20;99.90;;;;;;6136672;23;19937;-80
2022/04/08 08:22:24;;;;;;;;;;;7.30;99.90;;;;;;6134828;23;19925;-82
2022/04/08 08:24:55;;;;;;;;;;;7.40;99.90;;;;;;6132859;23;19925;-82
2022/04/08 08:27:24;;;;;;;;;;;7.50;99.90;;;;;;6144998;23;19920;-80
2022/04/08 08:29:52;;;;;;;;;;;7.60;99.90;;;;;;6161046;23;20240;-81
2022/04/08 08:32:21;;;;;;;;;;;7.70;99.90;;;;;;6139332;23;19920;-83
2022/04/08 08:34:50;;;;;;;;;;;8.10;99.90;;;;;;6145219;23;19925;-81
2022/04/08 08:37:19;;;;;;;;;;;8.80;99.90;;;;;;6171760;23;19920;-80
2022/04/08 08:39:47;;;;;;;;;;;8.20;99.90;;;;;;6136321;23;19924;-82
2022/04/08 08:42:15;;;;;;;;;;;8.60;99.90;;;;;;6136540;23;19935;-83
2022/04/08 08:44:43;;;;;;;;;;;8.70;99.90;;;;;;6160745;23;20207;-81
2022/04/08 08:47:11;;;;;;;;;;;8.20;99.90;;;;;;6171994;23;19930;-81
2022/04/08 08:49:44;;;;;;;;;;;8.40;99.90;;;;;;6163583;23;19943;-82
2022/04/08 08:52:12;;;;;;;;;;;8.30;99.90;;;;;;6165054;23;19940;-82
2022/04/08 08:54:40;;;;;;;;;;;8.30;99.90;;;;;;6160755;23;19924;-81
2022/04/08 08:57:09;;;;;;;;;;;8.30;99.90;;;;;;6167881;23;19924;-81
2022/04/08 08:59:40;;;;;;;;;;;8.90;99.90;;;;;;6131301;23;19924;-80
2022/04/08 09:02:10;;;;;;;;;;;8.40;99.90;;;;;;6168466;23;19935;-81
2022/04/08 09:04:41;;;;;;;;;;;8.40;99.90;;;;;;6131717;23;19952;-80
2022/04/08 09:07:22;;;;;;;;;;;8.60;99.90;;;;;;6169030;23;19924;-82
2022/04/08 09:09:53;;;;;;;;;;;8.70;99.90;;;;;;6156887;23;19920;-82
2022/04/08 09:12:25;;;;;;;;;;;8.80;99.90;;;;;;6159490;23;19930;-80
2022/04/08 09:14:57;;;;;;;;;;;8.40;99.90;;;;;;6158986;23;19971;-83
2022/04/08 09:17:28;;;;;;;;;;;8.70;99.90;;;;;;6160679;23;19920;-82
2022/04/08 09:19:58;;;;;;;;;;;8.60;99.90;;;;;;6162921;23;19929;-83
2022/04/08 09:22:32;;;;;;;;;;;8.50;99.90;;;;;;6163467;23;20327;-82
2022/04/08 09:25:10;;;;;;;;;;;8.60;99.90;;;;;;6164354;23;19921;-81
2022/04/08 09:27:39;;;;;;;;;;;8.50;99.90;;;;;;6164326;23;19924;-80
2022/04/08 09:30:08;;;;;;;;;;;8.80;99.90;;;;;;6174450;23;19931;-82
2022/04/08 09:32:37;;;;;;;;;;;8.70;99.90;;;;;;6114020;23;19920;-80
2022/04/08 09:35:06;;;;;;;;;;;8.70;99.90;;;;;;6173343;23;19931;-83
2022/04/08 09:37:38;;;;;;;;;;;8.70;99.90;;;;;;6160196;23;19925;-81
2022/04/08 09:40:10;;;;;;;;;;;8.70;99.90;;;;;;6170294;23;20711;-81
2022/04/08 09:42:46;;;;;;;;;;;8.70;99.90;;;;;;6135861;23;19921;-81
2022/04/08 09:45:14;;;;;;;;;;;8.70;99.90;;;;;;6138207;23;19927;-81
2022/04/08 09:47:42;;;;;;;;;;;8.80;99.90;;;;;;6138293;23;19925;-82
2022/04/08 09:50:11;;;;;;;;;;;8.90;99.90;;;;;;6174636;23;19924;-81
2022/04/08 09:52:39;;;;;;;;;;;9.00;99.90;;;;;;6174180;23;19920;-81
2022/04/08 09:55:09;;;;;;;;;;;9.00;99.90;;;;;;6172969;23;20077;-80
2022/04/08 09:57:37;;;;;;;;;;;9.00;99.90;;;;;;6173623;23;19928;-80
2022/04/08 10:00:07;;;;;;;;;;;9.00;99.90;;;;;;6160953;23;20087;-81
2022/04/08 10:02:44;;;;;;;;;;;9.00;99.90;;;;;;6173981;23;19924;-81
2022/04/08 10:05:14;;;;;;;;;;;9.00;99.90;;;;;;6163446;23;20117;-79
2022/04/08 10:07:44;;;;;;;;;;;9.10;99.90;;;;;;6176171;23;20081;-82
2022/04/08 10:10:42;;;;;;;;;;;8.60;99.90;;;;;;6164838;23;19931;-82
2022/04/08 10:13:17;;;;;;;;;;;9.40;99.90;;;;;;6162789;23;19925;-79
2022/04/08 10:16:02;;;;;;;;;;;9.10;99.90;;;;;;6176300;23;19931;-81
2022/04/08 10:18:34;;;;;;;;;;;9.20;99.90;;;;;;6164611;23;19925;-81
2022/04/08 10:21:02;;;;;;;;;;;9.90;99.90;;;;;;6141194;23;19925;-82
2022/04/08 10:23:37;;;;;;;;;;;9.30;99.90;;;;;;6167715;23;19934;-82
2022/04/08 10:26:15;;;;;;;;;;;9.60;99.90;;;;;;6140453;23;19924;-85
2022/04/08 10:28:43;;;;;;;;;;;9.30;99.90;;;;;;6163472;23;19921;-83
2022/04/08 10:31:15;;;;;;;;;;;9.50;99.90;;;;;;6168922;23;19920;-83
2022/04/08 10:34:07;;;;;;;;;;;9.50;99.90;;;;;;6175669;23;20173;-81
2022/04/08 10:36:37;;;;;;;;;;;9.60;99.90;;;;;;6173928;23;19924;-82
2022/04/08 10:39:16;;;;;;;;;;;9.60;99.90;;;;;;6166694;23;19963;-82
2022/04/08 10:42:11;;;;;;;;;;;9.70;99.90;;;;;;6150536;23;19921;-81
2022/04/08 10:44:42;;;;;;;;;;;9.70;99.90;;;;;;6163566;23;19927;-81
2022/04/08 10:47:13;;;;;;;;;;;9.80;99.90;;;;;;6170250;23;19972;-82
2022/04/08 10:49:51;;;;;;;;;;;9.70;99.90;;;;;;6165919;23;19931;-82
2022/04/08 10:52:23;;;;;;;;;;;9.90;99.90;;;;;;6177541;23;19924;-81
2022/04/08 10:55:03;;;;;;;;;;;9.90;99.90;;;;;;6149732;23;19924;-83
2022/04/08 10:57:35;;;;;;;;;;;9.60;99.70;;;;;;6167485;23;20247;-81
2022/04/08 11:00:06;;;;;;;;;;;9.90;99.80;;;;;;6140963;23;19925;-81
2022/04/08 11:02:38;;;;;;;;;;;10.00;99.30;;;;;;6144048;23;19935;-83
2022/04/08 11:05:08;;;;;;;;;;;10.10;99.30;;;;;;6142754;23;19924;-81
2022/04/08 11:07:43;;;;;;;;;;;10.30;98.70;;;;;;6179932;23;19927;-80
2022/04/08 11:10:13;;;;;;;;;;;10.20;98.70;;;;;;6166518;23;19943;-80
2022/04/08 11:12:46;;;;;;;;;;;10.60;99.10;;;;;;6163538;23;19921;-80
2022/04/08 11:15:15;;;;;;;;;;;10.30;97.90;;;;;;6138348;23;19925;-79
2022/04/08 11:17:44;;;;;;;;;;;10.40;99.00;;;;;;6143456;23;19924;-82
2022/04/08 11:20:17;;;;;;;;;;;10.40;98.70;;;;;;6141189;23;20242;-82
2022/04/08 11:22:50;;;;;;;;;;;10.60;97.60;;;;;;6143339;23;19937;-79
2022/04/08 11:25:25;;;;;;;;;;;10.80;96.80;;;;;;6166225;23;19925;-80
2022/04/08 11:28:00;;;;;;;;;;;11.00;96.60;;;;;;6115742;23;19920;-78
2022/04/08 11:30:29;;;;;;;;;;;11.30;95.90;;;;;;6166260;23;19931;-78
2022/04/08 11:32:58;;;;;;;;;;;11.40;96.30;;;;;;6166158;23;19921;-83
2022/04/08 11:35:32;;;;;;;;;;;11.60;96.40;;;;;;6167139;23;19924;-81
2022/04/08 11:38:11;;;;;;;;;;;11.70;96.70;;;;;;6138061;23;19921;-79
2022/04/08 11:40:39;;;;;;;;;;;11.90;96.70;;;;;;6091711;23;19931;-79
2022/04/08 11:43:07;;;;;;;;;;;11.80;95.60;;;;;;6174683;23;19935;-82
2022/04/08 11:45:35;;;;;;;;;;;11.90;95.80;;;;;;6149216;23;19924;-81
2022/04/08 11:48:05;;;;;;;;;;;11.90;95.00;;;;;;6136135;23;19935;-79
2022/04/08 11:50:37;;;;;;;;;;;11.90;94.70;;;;;;6175469;23;19924;-78
2022/04/08 11:53:13;;;;;;;;;;;11.90;94.30;;;;;;6172607;23;19931;-81
2022/04/08 11:55:55;;;;;;;;;;;12.00;94.20;;;;;;6142807;23;19925;-81
2022/04/08 11:58:27;;;;;;;;;;;12.10;95.30;;;;;;6174211;23;19925;-79
2022/04/08 12:00:59;;;;;;;;;;;12.10;94.40;;;;;;6139794;23;19920;-83
2022/04/08 12:03:31;;;;;;;;;;;12.30;94.50;;;;;;6138902;23;19921;-79
2022/04/08 12:06:01;;;;;;;;;;;12.10;94.40;;;;;;6161795;23;19920;-79
2022/04/08 12:08:43;;;;;;;;;;;12.10;93.30;;;;;;6164688;23;19931;-81
2022/04/08 12:11:14;;;;;;;;;;;12.20;93.20;;;;;;6162528;23;19931;-80
2022/04/08 12:13:43;;;;;;;;;;;12.30;93.60;;;;;;6137550;23;19920;-79
2022/04/08 12:16:11;;;;;;;;;;;12.40;93.50;;;;;;6163961;23;19925;-79
2022/04/08 12:18:51;;;;;;;;;;;12.50;93.60;;;;;;6141849;23;19925;-82
2022/04/08 12:21:26;;;;;;;;;;;12.60;93.30;;;;;;6177986;23;19920;-81
2022/04/08 12:23:55;;;;;;;;;;;12.60;92.80;;;;;;6165861;23;19929;-80
2022/04/08 12:26:26;;;;;;;;;;;12.70;92.50;;;;;;6154249;23;19920;-78
2022/04/08 12:29:09;;;;;;;;;;;12.60;91.80;;;;;;6139080;23;20395;-78
2022/04/08 12:31:54;;;;;;;;;;;12.60;91.60;;;;;;6135020;23;20335;-80
2022/04/08 12:34:24;;;;;;;;;;;12.40;91.70;;;;;;6147773;23;19924;-79
2022/04/08 12:36:51;;;;;;;;;;;12.60;91.30;;;;;;6139108;23;19925;-81
2022/04/08 12:39:19;;;;;;;;;;;12.70;91.40;;;;;;6149095;23;19927;-82
2022/04/08 12:41:47;;;;;;;;;;;12.80;91.30;;;;;;6139252;23;19925;-80
2022/04/08 12:44:16;;;;;;;;;;;12.80;91.20;;;;;;6196448;23;19921;-78
2022/04/08 12:46:45;;;;;;;;;;;12.90;91.20;;;;;;6148884;23;19931;-79
2022/04/08 12:49:13;;;;;;;;;;;13.00;91.00;;;;;;6187866;23;19931;-79
2022/04/08 12:51:42;;;;;;;;;;;13.10;90.50;;;;;;6184835;23;19931;-82
2022/04/08 12:54:11;;;;;;;;;;;13.20;90.40;;;;;;6136888;23;19935;-81
2022/04/08 12:56:41;;;;;;;;;;;13.20;90.10;;;;;;6163046;23;19925;-81
2022/04/08 12:59:11;;;;;;;;;;;13.20;89.50;;;;;;6151711;23;19931;-80
2022/04/08 13:01:39;;;;;;;;;;;13.10;89.40;;;;;;6138471;23;19921;-81
2022/04/08 13:04:07;;;;;;;;;;;13.10;89.70;;;;;;6138134;23;19932;-84
2022/04/08 13:06:37;;;;;;;;;;;13.20;89.20;;;;;;6136093;23;19925;-80
2022/04/08 13:09:05;;;;;;;;;;;13.20;88.50;;;;;;6183892;23;19925;-80
2022/04/08 13:11:34;;;;;;;;;;;13.30;87.90;;;;;;6129396;23;19925;-79
2022/04/08 13:14:01;;;;;;;;;;;13.30;88.90;;;;;;6146717;23;19925;-78
2022/04/08 13:16:30;;;;;;;;;;;13.50;87.20;;;;;;6186785;23;19929;-79
2022/04/08 13:18:59;;;;;;;;;;;13.50;86.50;;;;;;6138398;23;19921;-80
2022/04/08 13:21:28;;;;;;;;;;;13.40;86.40;;;;;;6139061;23;19927;-80
2022/04/08 13:23:55;;;;;;;;;;;13.40;87.50;;;;;;6147030;23;19924;-80
2022/04/08 13:26:26;;;;;;;;;;;13.50;84.40;;;;;;6139110;23;19925;-81
2022/04/08 13:28:55;;;;;;;;;;;13.50;86.00;;;;;;6138474;23;19944;-79
2022/04/08 13:31:23;;;;;;;;;;;13.50;86.00;;;;;;6136737;23;19925;-80
2022/04/08 13:33:56;;;;;;;;;;;13.60;85.70;;;;;;6138112;23;19927;-86
2022/04/08 13:36:29;;;;;;;;;;;13.70;83.80;;;;;;6135580;23;19921;-85
2022/04/08 13:39:04;;;;;;;;;;;14.70;85.40;;;;;;6156176;23;19921;-84
2022/04/08 13:41:32;;;;;;;;;;;13.50;82.80;;;;;;6152817;23;19932;-87
2022/04/08 13:44:05;;;;;;;;;;;13.40;82.70;;;;;;6156491;23;19924;-86
2022/04/08 13:46:41;;;;;;;;;;;13.20;83.60;;;;;;6132638;23;19956;-86
2022/04/08 13:49:16;;;;;;;;;;;13.10;84.10;;;;;;6158010;23;19921;-87
2022/04/08 13:51:44;;;;;;;;;;;13.00;85.20;;;;;;6164182;23;19925;-86
2022/04/08 13:54:12;;;;;;;;;;;12.90;84.80;;;;;;6138013;23;19924;-86
2022/04/08 13:56:40;;;;;;;;;;;12.90;85.40;;;;;;6139581;23;19925;-84
2022/04/08 13:59:08;;;;;;;;;;;12.90;85.60;;;;;;6134384;23;20223;-88
2022/04/08 14:01:38;;;;;;;;;;;13.00;85.20;;;;;;6132498;23;20244;-87
2022/04/08 14:04:11;;;;;;;;;;;13.00;84.80;;;;;;6132961;23;20023;-84
2022/04/08 14:06:40;;;;;;;;;;;13.20;84.90;;;;;;6132098;23;19925;-87
2022/04/08 14:09:11;;;;;;;;;;;13.20;82.60;;;;;;6155673;23;20231;-85
2022/04/08 14:11:41;;;;;;;;;;;13.30;82.60;;;;;;6132294;23;19925;-85
2022/04/08 14:14:10;;;;;;;;;;;13.30;81.30;;;;;;6159231;23;19920;-86
2022/04/08 14:16:43;;;;;;;;;;;13.30;80.80;;;;;;6109531;23;20178;-85
2022/04/08 14:19:11;;;;;;;;;;;13.20;81.30;;;;;;6131455;23;19931;-83
2022/04/08 14:21:39;;;;;;;;;;;13.00;81.40;;;;;;6129665;23;19925;-85
2022/04/08 14:24:09;;;;;;;;;;;13.80;82.70;;;;;;6155721;23;19925;-84
2022/04/08 14:26:41;;;;;;;;;;;12.70;81.50;;;;;;6132075;23;19925;-86
2022/04/08 14:29:14;;;;;;;;;;;12.60;81.30;;;;;;6131537;23;19932;-85
2022/04/08 14:31:46;;;;;;;;;;;12.60;81.20;;;;;;6154972;23;19925;-86
2022/04/08 14:34:53;;;;;;;;;;;12.60;81.00;;;;;;6132140;23;19921;-86
2022/04/08 14:37:22;;;;;;;;;;;12.80;81.20;;;;;;6109215;23;19928;-84
2022/04/08 14:39:52;;;;;;;;;;;12.20;78.70;;;;;;6113364;23;19921;-85
2022/04/08 14:42:21;;;;;;;;;;;13.20;79.50;;;;;;6135776;23;19927;-84
2022/04/08 14:44:52;;;;;;;;;;;12.60;77.00;;;;;;6114120;23;19931;-84